Time;durP1;ratioP1;P1;durP2;ratioP2;P2;SDS_P1;SDS_P2;PMS_P1;PMS_P2;Temp;Humidity;BMP_temperature;BMP_pressure;BME280_temperature;BME280_humidity;BME280_pressure;Samples;Min_cycle;Max_cycle;Signal;HPM_P1;HPM_P2
2021/12/02 00:02:25;;;;;;;7.93;1.88;;;;;;;3.93;96.02;99500.63;5989384;23;20054;-77
2021/12/02 00:04:54;;;;;;;6.07;1.45;;;;;;;3.90;96.87;99509.28;5987770;23;20023;-77
2021/12/02 00:07:22;;;;;;;9.80;1.70;;;;;;;3.86;96.15;99502.31;5985047;23;20023;-77
2021/12/02 00:09:51;;;;;;;6.35;1.38;;;;;;;3.83;95.83;99515.31;6031858;23;20030;-77
2021/12/02 00:12:20;;;;;;;6.28;1.90;;;;;;;3.80;95.49;99511.78;6022929;23;20034;-77
2021/12/02 00:14:50;;;;;;;5.20;1.42;;;;;;;3.78;95.88;99518.72;6072237;23;20018;-79
2021/12/02 00:23:08;;;;;;;5.75;1.75;;;;;;;3.75;95.47;99522.19;6095028;23;20432;-77
2021/12/02 00:25:38;;;;;;;9.60;1.63;;;;;;;3.78;96.53;99529.16;6075055;23;20205;-78
2021/12/02 00:28:06;;;;;;;11.15;1.77;;;;;;;3.78;96.44;99532.66;6011314;23;20026;-78
2021/12/02 00:30:35;;;;;;;8.45;1.92;;;;;;;3.78;96.99;99535.25;6095831;23;20026;-78
2021/12/02 01:14:21;;;;;;;7.53;1.90;;;;;;;3.67;92.29;99558.59;6040960;23;20106;-78
2021/12/02 01:16:53;;;;;;;6.18;1.55;;;;;;;3.66;92.72;99555.97;6010889;23;20030;-78
2021/12/02 01:19:22;;;;;;;6.65;1.38;;;;;;;3.65;93.33;99555.09;6012931;23;20023;-78
2021/12/02 01:21:54;;;;;;;5.22;1.40;;;;;;;3.65;93.78;99560.31;6041427;23;20335;-78
2021/12/02 01:24:26;;;;;;;5.75;1.40;;;;;;;3.64;94.03;99558.56;6054400;23;20019;-78
2021/12/02 01:26:57;;;;;;;5.78;1.25;;;;;;;3.64;95.05;99560.28;6017759;23;20046;-78
2021/12/02 01:29:26;;;;;;;;;;;;;;;3.62;93.19;99559.41;6045004;23;20023;-78
2021/12/02 01:32:04;;;;;;;4.57;1.63;;;;;;;3.60;95.19;99562.00;6063800;23;19917;-78
2021/12/02 01:34:34;;;;;;;4.68;1.50;;;;;;;3.60;95.63;99562.00;6028859;23;20038;-79
2021/12/02 01:37:09;;;;;;;3.43;1.30;;;;;;;3.59;96.69;99559.34;6038248;23;20165;-77
2021/12/02 01:39:38;;;;;;;7.28;1.40;;;;;;;3.58;96.74;99565.44;6066387;23;20022;-79
2021/12/02 01:42:14;;;;;;;7.43;1.25;;;;;;;3.57;96.73;99558.47;6041396;23;20394;-78
2021/12/02 01:44:43;;;;;;;4.03;1.45;;;;;;;3.56;97.72;99560.22;6035536;23;20027;-79
2021/12/02 01:47:13;;;;;;;5.68;1.40;;;;;;;3.57;97.94;99566.28;6067720;23;20026;-77
2021/12/02 01:49:43;;;;;;;8.13;1.50;;;;;;;3.54;97.87;99581.91;6039797;23;20022;-78
2021/12/02 01:52:13;;;;;;;7.80;1.55;;;;;;;3.53;97.92;99582.75;6037766;23;20014;-78
2021/12/02 01:54:44;;;;;;;5.30;1.33;;;;;;;3.49;97.48;99589.66;6061427;23;20014;-78
2021/12/02 01:57:29;;;;;;;6.30;1.65;;;;;;;3.46;98.51;99611.34;6024732;23;20255;-78
2021/12/02 02:00:05;;;;;;;7.80;1.70;;;;;;;3.48;99.07;99625.25;6064930;23;20019;-77
2021/12/02 02:02:39;;;;;;;6.72;1.42;;;;;;;3.43;100.00;99620.84;6078927;23;20027;-75
2021/12/02 02:05:13;;;;;;;10.05;1.80;;;;;;;3.31;100.00;99621.56;6072780;23;20292;-75
2021/12/02 02:07:54;;;;;;;12.52;1.52;;;;;;;3.18;100.00;99625.72;6119539;23;20018;-75
2021/12/02 02:10:23;;;;;;;;;;;;;;;3.07;100.00;99635.13;6125729;23;20351;-75
2021/12/02 02:12:54;;;;;;;10.80;1.60;;;;;;;2.95;100.00;99635.81;6044395;23;20524;-75
2021/12/02 02:15:22;;;;;;;7.00;1.85;;;;;;;2.86;100.00;99638.28;6092904;23;20022;-75
2021/12/02 02:20:25;;;;;;;7.15;1.52;;;;;;;2.77;100.00;99646.81;6125779;23;20029;-75
2021/12/02 02:22:53;;;;;;;10.02;1.55;;;;;;;2.73;100.00;99645.88;6112887;23;20364;-75
2021/12/02 02:25:22;;;;;;;6.43;1.35;;;;;;;2.67;100.00;99640.59;6099112;23;20033;-74
2021/12/02 02:27:51;;;;;;;9.73;1.80;;;;;;;2.62;100.00;99644.84;6091058;23;20142;-75
2021/12/02 02:30:19;;;;;;;8.82;1.70;;;;;;;2.59;100.00;99638.72;6099229;23;20021;-75
2021/12/02 02:32:48;;;;;;;1.90;0.93;;;;;;;2.57;100.00;99636.13;6061497;23;20352;-75
2021/12/02 02:35:16;;;;;;;8.95;1.45;;;;;;;2.55;100.00;99637.78;6099320;23;20025;-75
2021/12/02 02:37:45;;;;;;;7.45;1.25;;;;;;;2.51;100.00;99628.19;6081392;23;20022;-75
2021/12/02 02:40:16;;;;;;;5.53;1.25;;;;;;;2.49;100.00;99627.28;6124398;23;20021;-75
2021/12/02 02:42:48;;;;;;;4.00;1.30;;;;;;;2.48;100.00;99629.03;6095481;23;20025;-74
2021/12/02 02:45:17;;;;;;;6.78;1.40;;;;;;;2.49;100.00;99627.28;6098455;23;20021;-74
2021/12/02 02:47:45;;;;;;;3.20;1.13;;;;;;;2.49;100.00;99628.16;6070853;23;20048;-75
2021/12/02 02:50:15;;;;;;;8.90;1.23;;;;;;;2.48;100.00;99625.56;6124591;23;20467;-75
2021/12/02 02:52:45;;;;;;;6.88;1.02;;;;;;;2.49;100.00;99629.91;6119067;23;20021;-74
2021/12/02 02:55:23;;;;;;;4.20;1.33;;;;;;;2.47;100.00;99618.59;6083739;23;20026;-74
2021/12/02 02:58:05;;;;;;;8.05;1.83;;;;;;;2.44;100.00;99623.72;6095313;23;20025;-75
2021/12/02 03:00:38;;;;;;;17.40;1.77;;;;;;;2.43;100.00;99622.00;6050694;23;20021;-75
2021/12/02 03:08:34;;;;;;;1.35;0.90;;;;;;;2.39;100.00;99636.66;6095565;23;20027;-74
2021/12/02 03:11:03;;;;;;;1.52;0.80;;;;;;;2.39;100.00;99635.81;6053279;23;20041;-74
2021/12/02 03:14:11;;;;;;;4.63;0.90;;;;;;;2.39;100.00;99639.28;6092575;23;20022;-75
2021/12/02 03:19:28;;;;;;;2.65;0.80;;;;;;;2.36;100.00;99631.41;6046175;23;20019;-75
2021/12/02 03:21:57;;;;;;;2.38;1.00;;;;;;;2.33;100.00;99647.84;6064798;23;20615;-74
2021/12/02 03:24:26;;;;;;;2.17;0.82;;;;;;;2.33;100.00;99650.44;6087986;23;20022;-74
2021/12/02 03:26:55;;;;;;;2.85;0.88;;;;;;;2.33;100.00;99646.97;6088408;23;20057;-75
2021/12/02 03:29:24;;;;;;;3.97;0.80;;;;;;;2.29;100.00;99646.03;6070281;23;20030;-75
2021/12/02 03:31:52;;;;;;;1.10;0.80;;;;;;;2.29;100.00;99646.03;6059685;23;20033;-75
2021/12/02 03:34:21;;;;;;;3.38;1.00;;;;;;;2.32;100.00;99653.88;6086998;23;20023;-75
2021/12/02 03:36:49;;;;;;;2.25;1.30;;;;;;;2.37;100.00;99656.56;6065090;23;20045;-75
2021/12/02 03:39:18;;;;;;;3.78;1.23;;;;;;;2.38;100.00;99653.09;6095275;23;20072;-75
2021/12/02 03:41:46;;;;;;;4.75;0.93;;;;;;;2.38;100.00;99654.84;6062162;23;20023;-75
2021/12/02 03:44:15;;;;;;;3.42;0.90;;;;;;;2.37;100.00;99658.31;6090213;23;20356;-75
2021/12/02 03:46:43;;;;;;;2.47;0.80;;;;;;;2.38;100.00;99654.84;6063083;23;20022;-76
2021/12/02 03:49:12;;;;;;;4.28;1.23;;;;;;;2.38;100.00;99653.09;6095333;23;20022;-74
2021/12/02 03:51:40;;;;;;;2.45;0.80;;;;;;;2.40;100.00;99658.34;6068861;23;20030;-74
2021/12/02 03:54:08;;;;;;;5.93;1.00;;;;;;;2.41;100.00;99665.31;6087289;23;20079;-75
2021/12/02 03:56:37;;;;;;;3.17;1.23;;;;;;;2.40;100.00;99661.84;6091347;23;20032;-75
2021/12/02 03:59:05;;;;;;;6.32;1.40;;;;;;;2.39;100.00;99654.00;6035032;23;20618;-75
2021/12/02 04:01:34;;;;;;;4.97;0.98;;;;;;;2.34;100.00;99653.91;6065422;23;20030;-75
2021/12/02 04:04:02;;;;;;;3.70;0.90;;;;;;;2.31;100.00;99651.28;6058312;23;20505;-75
2021/12/02 04:06:31;;;;;;;4.07;0.85;;;;;;;2.26;100.00;99651.19;6071070;23;20029;-75
2021/12/02 04:09:22;;;;;;;3.95;1.00;;;;;;;2.24;100.00;99668.47;6087448;23;20019;-75
2021/12/02 04:14:27;;;;;;;1.10;0.70;;;;;;;2.10;100.00;99681.22;6067895;23;20022;-74
2021/12/02 04:17:02;;;;;;;1.65;0.75;;;;;;;1.99;100.00;99676.69;6038950;23;20141;-75
2021/12/02 04:19:30;;;;;;;2.90;0.70;;;;;;;1.91;100.00;99686.91;6096051;23;20471;-75
2021/12/02 04:21:59;;;;;;;3.78;1.13;;;;;;;1.81;100.00;99677.19;6090592;23;20022;-74
2021/12/02 04:24:27;;;;;;;0.77;0.65;;;;;;;1.76;100.00;99669.31;6069128;23;20022;-74
2021/12/02 04:26:55;;;;;;;3.95;0.73;;;;;;;1.71;100.00;99663.16;6088262;23;20544;-74
2021/12/02 04:29:24;;;;;;;2.05;0.68;;;;;;;1.65;100.00;99655.25;6071165;23;20022;-74
2021/12/02 04:31:53;;;;;;;1.15;0.90;;;;;;;1.63;100.00;99641.34;6062755;23;20464;-74
2021/12/02 04:34:22;;;;;;;2.55;0.70;;;;;;;1.59;100.00;99649.91;6095830;23;20029;-75
2021/12/02 04:36:50;;;;;;;2.58;0.60;;;;;;;1.55;100.00;99649.88;6065607;23;20241;-73
2021/12/02 04:39:19;;;;;;;4.00;1.02;;;;;;;1.51;100.00;99662.72;6096524;23;20352;-74
2021/12/02 04:41:48;;;;;;;2.08;0.95;;;;;;;1.48;100.00;99666.16;6090094;23;20356;-74
2021/12/02 04:44:18;;;;;;;1.55;0.70;;;;;;;1.46;100.00;99665.25;6057435;23;20026;-74
2021/12/02 04:46:47;;;;;;;1.67;0.60;;;;;;;1.41;100.00;99666.00;6035178;23;20018;-74
2021/12/02 04:49:15;;;;;;;2.53;0.80;;;;;;;1.40;100.00;99677.19;6047007;23;20022;-74
2021/12/02 04:51:44;;;;;;;2.67;0.68;;;;;;;1.40;100.00;99670.31;6091170;23;20022;-75
2021/12/02 04:54:12;;;;;;;1.23;0.60;;;;;;;1.42;100.00;99672.91;6060370;23;20018;-74
2021/12/02 04:56:41;;;;;;;1.55;0.77;;;;;;;1.40;100.00;99662.53;6068060;23;20018;-75
2021/12/02 04:59:09;;;;;;;2.90;0.80;;;;;;;1.42;100.00;99662.53;6089609;23;20030;-75
2021/12/02 05:01:38;;;;;;;1.75;1.02;;;;;;;1.43;100.00;99667.75;6092451;23;20018;-76
2021/12/02 05:04:06;;;;;;;2.95;0.73;;;;;;;1.43;100.00;99667.75;6045896;23;20126;-74
2021/12/02 05:06:35;;;;;;;0.55;0.50;;;;;;;1.44;100.00;99673.84;6062728;23;20026;-75
2021/12/02 05:09:03;;;;;;;0.73;0.68;;;;;;;1.43;100.00;99669.50;6044157;23;20526;-74
2021/12/02 05:11:33;;;;;;;0.52;0.52;;;;;;;1.41;100.00;99673.78;6091377;23;20025;-74
2021/12/02 05:14:02;;;;;;;0.65;0.60;;;;;;;1.36;100.00;99673.66;6091284;23;20588;-75
2021/12/02 05:16:30;;;;;;;1.75;0.63;;;;;;;1.30;100.00;99683.91;6089150;23;20345;-74
2021/12/02 05:18:59;;;;;;;0.55;0.55;;;;;;;1.25;100.00;99693.31;6038535;23;20058;-75
2021/12/02 05:21:27;;;;;;;0.57;0.57;;;;;;;1.24;100.00;99686.41;6095629;23;20014;-75
2021/12/02 05:23:56;;;;;;;0.45;0.45;;;;;;;1.24;100.00;99686.41;6090707;23;20503;-74
2021/12/02 05:26:25;;;;;;;0.85;0.68;;;;;;;1.27;100.00;99686.47;6089560;23;20026;-75
2021/12/02 05:28:54;;;;;;;0.73;0.73;;;;;;;1.28;100.00;99694.25;6088956;23;20292;-75
2021/12/02 05:31:23;;;;;;;2.33;0.60;;;;;;;1.30;100.00;99694.31;6092367;23;20029;-74
2021/12/02 05:33:51;;;;;;;2.55;0.82;;;;;;;1.30;100.00;99691.72;6002614;23;20581;-74
2021/12/02 05:36:20;;;;;;;1.63;0.50;;;;;;;1.26;100.00;99697.69;6089356;23;20459;-74
2021/12/02 05:38:48;;;;;;;0.82;0.70;;;;;;;1.26;100.00;99710.66;6065662;23;20019;-75
2021/12/02 05:41:17;;;;;;;0.85;0.60;;;;;;;1.24;100.00;99710.63;6095827;23;20026;-74
2021/12/02 05:43:46;;;;;;;1.75;0.70;;;;;;;1.25;100.00;99714.06;6065981;23;20022;-75
2021/12/02 05:46:14;;;;;;;4.45;0.70;;;;;;;1.26;100.00;99715.84;6083925;23;20033;-75
2021/12/02 05:48:42;;;;;;;4.82;1.67;;;;;;;1.27;100.00;99715.88;6048561;23;20029;-75
2021/12/02 05:51:11;;;;;;;2.40;0.90;;;;;;;1.25;100.00;99719.28;6088573;23;20021;-75
2021/12/02 05:53:39;;;;;;;1.80;0.50;;;;;;;1.23;100.00;99728.75;6092945;23;20029;-75
2021/12/02 05:56:08;;;;;;;2.67;0.60;;;;;;;1.15;100.00;99724.28;6087367;23;20018;-75
2021/12/02 05:58:36;;;;;;;0.63;0.60;;;;;;;1.16;100.00;99735.53;6093970;23;20030;-75
2021/12/02 06:01:04;;;;;;;0.77;0.60;;;;;;;1.16;100.00;99738.13;6063623;23;20018;-75
2021/12/02 06:03:36;;;;;;;1.20;0.82;;;;;;;1.16;100.00;99736.41;6094636;23;20029;-75
2021/12/02 06:06:05;;;;;;;3.15;0.80;;;;;;;1.18;100.00;99736.44;6065779;23;20564;-75
2021/12/02 06:08:33;;;;;;;2.38;0.80;;;;;;;1.17;100.00;99732.97;6094340;23;20354;-75
2021/12/02 06:11:02;;;;;;;2.88;0.80;;;;;;;1.18;100.00;99744.22;6066879;23;20014;-75
2021/12/02 06:13:31;;;;;;;1.13;1.05;;;;;;;1.17;100.00;99748.53;6061606;23;20360;-75
2021/12/02 06:15:59;;;;;;;3.80;1.05;;;;;;;1.16;100.00;99748.50;6029013;23;20018;-74
2021/12/02 06:18:27;;;;;;;2.15;0.80;;;;;;;1.17;100.00;99750.25;6065696;23;20492;-74
2021/12/02 06:20:56;;;;;;;4.38;0.75;;;;;;;1.18;100.00;99757.19;6062365;23;20316;-74
2021/12/02 06:23:24;;;;;;;2.20;0.80;;;;;;;1.17;100.00;99758.94;6095538;23;20027;-75
2021/12/02 06:25:53;;;;;;;2.90;0.80;;;;;;;1.21;100.00;99759.88;6063542;23;20521;-75
2021/12/02 06:28:21;;;;;;;1.13;0.80;;;;;;;1.25;100.00;99760.78;6070229;23;20014;-74
2021/12/02 06:30:50;;;;;;;2.42;1.65;;;;;;;1.25;100.00;99763.38;6088048;23;20027;-74
2021/12/02 06:33:18;;;;;;;2.05;0.93;;;;;;;1.25;100.00;99764.28;6065946;23;20045;-75
2021/12/02 06:35:47;;;;;;;2.60;0.80;;;;;;;1.28;100.00;99763.47;6061019;23;20352;-74
2021/12/02 06:38:19;;;;;;;2.85;0.90;;;;;;;1.28;100.00;99769.53;6059890;23;20045;-74
2021/12/02 06:40:50;;;;;;;1.52;1.10;;;;;;;1.29;100.00;99766.13;6088223;23;20197;-74
2021/12/02 06:43:19;;;;;;;1.48;0.95;;;;;;;1.28;100.00;99773.84;6094797;23;20018;-76
2021/12/02 06:45:48;;;;;;;1.88;0.85;;;;;;;1.28;100.00;99779.91;6057588;23;20030;-75
2021/12/02 06:48:17;;;;;;;3.25;1.20;;;;;;;1.28;100.00;99777.31;6060872;23;20248;-75
2021/12/02 06:50:45;;;;;;;2.90;1.27;;;;;;;1.30;100.00;99779.97;6045578;23;20030;-76
2021/12/02 06:53:16;;;;;;;4.25;1.40;;;;;;;1.31;100.00;99769.63;6086486;23;20444;-76
2021/12/02 06:55:45;;;;;;;2.75;0.98;;;;;;;1.34;100.00;99786.97;6050632;23;20025;-75
2021/12/02 06:58:14;;;;;;;2.75;1.20;;;;;;;1.36;100.00;99790.47;6057971;23;20029;-75
2021/12/02 07:00:42;;;;;;;2.83;1.20;;;;;;;1.37;100.00;99789.66;6063169;23;20027;-75
2021/12/02 07:03:11;;;;;;;1.45;1.35;;;;;;;1.36;100.00;99785.28;6084021;23;20240;-76
2021/12/02 07:05:40;;;;;;;1.38;1.05;;;;;;;1.30;100.00;99798.13;6092664;23;20026;-76
2021/12/02 07:08:09;;;;;;;6.65;1.58;;;;;;;1.26;100.00;99804.09;6034352;23;20297;-78
2021/12/02 07:10:41;;;;;;;1.65;1.30;;;;;;;1.23;100.00;99806.59;6087174;23;20033;-78
2021/12/02 07:13:10;;;;;;;3.42;1.75;;;;;;;1.19;100.00;99802.19;6029021;23;20026;-78
2021/12/02 07:15:44;;;;;;;1.65;1.17;;;;;;;1.11;100.00;99800.28;6089630;23;20335;-78
2021/12/02 07:18:13;;;;;;;4.35;1.40;;;;;;;1.04;100.00;99805.28;6023273;23;20026;-78
2021/12/02 07:20:44;;;;;;;2.00;1.42;;;;;;;0.99;100.00;99812.97;6069730;23;20025;-78
2021/12/02 07:23:19;;;;;;;8.10;2.38;;;;;;;0.93;100.00;99797.25;6063259;23;20018;-78
2021/12/02 07:25:49;;;;;;;5.43;3.35;;;;;;;0.90;100.00;99802.34;6069074;23;20022;-77
2021/12/02 07:28:18;;;;;;;4.05;1.40;;;;;;;0.89;100.00;99805.75;6088520;23;20134;-77
2021/12/02 07:30:54;;;;;;;2.75;1.42;;;;;;;0.87;100.00;99810.94;6092407;23;20022;-78
2021/12/02 07:33:29;;;;;;;3.90;1.50;;;;;;;0.85;100.00;99820.41;6048666;23;20018;-78
2021/12/02 07:35:57;;;;;;;5.18;1.40;;;;;;;0.83;100.00;99826.34;6063944;23;20452;-77
2021/12/02 07:38:25;;;;;;;3.63;1.40;;;;;;;0.80;100.00;99823.72;6039943;23;20511;-77
2021/12/02 07:40:54;;;;;;;7.68;1.55;;;;;;;0.76;100.00;99825.34;6058153;23;20033;-77
2021/12/02 07:43:23;;;;;;;4.60;1.30;;;;;;;0.74;100.00;99827.88;6033366;23;20256;-77
2021/12/02 07:45:51;;;;;;;3.28;1.20;;;;;;;0.72;100.00;99845.13;6082320;23;20125;-77
2021/12/02 07:48:20;;;;;;;5.30;1.20;;;;;;;0.72;100.00;99845.13;6042610;23;20510;-77
2021/12/02 07:50:49;;;;;;;4.05;1.48;;;;;;;0.74;100.00;99842.56;6088904;23;20022;-77
2021/12/02 07:53:18;;;;;;;1.33;1.20;;;;;;;0.74;100.00;99853.81;6092505;23;20141;-77
2021/12/02 07:55:50;;;;;;;2.30;0.95;;;;;;;0.76;100.00;99856.47;6039654;23;20022;-77
2021/12/02 07:58:21;;;;;;;2.72;1.30;;;;;;;0.77;100.00;99869.44;6084438;23;20364;-77
2021/12/02 08:00:50;;;;;;;;;;;;;;;0.75;100.00;99875.44;6055853;23;20033;-77
2021/12/02 08:03:20;;;;;;;3.72;1.20;;;;;;;0.73;100.00;99879.72;6069934;23;20246;-77
2021/12/02 08:05:49;;;;;;;;;;;;;;;0.69;100.00;99886.53;6032866;23;20029;-77
2021/12/02 08:08:17;;;;;;;3.97;2.45;;;;;;;0.68;100.00;99882.19;6066444;23;19917;-77
2021/12/02 08:10:46;;;;;;;3.95;1.58;;;;;;;0.66;100.00;99886.44;6071411;23;20033;-77
2021/12/02 08:13:14;;;;;;;2.35;1.88;;;;;;;0.65;100.00;99897.66;6079220;23;20293;-77
2021/12/02 08:15:44;;;;;;;1.80;1.70;;;;;;;0.65;100.00;99896.78;6077647;23;20030;-76
2021/12/02 08:18:12;;;;;;;4.68;2.00;;;;;;;0.67;100.00;99897.69;6086221;23;20022;-76
2021/12/02 08:20:41;;;;;;;7.82;2.60;;;;;;;0.68;100.00;99902.94;6069626;23;20033;-76
2021/12/02 08:23:09;;;;;;;6.95;1.90;;;;;;;0.73;100.00;99909.09;6064036;23;20014;-77
2021/12/02 08:25:37;;;;;;;6.47;2.33;;;;;;;0.82;100.00;99912.81;6042832;23;20108;-77
2021/12/02 08:28:06;;;;;;;3.25;1.98;;;;;;;0.91;100.00;99916.53;6081887;23;20026;-76
2021/12/02 08:30:37;;;;;;;2.55;2.25;;;;;;;0.99;100.00;99926.25;6046539;23;20296;-76
2021/12/02 08:33:07;;;;;;;6.65;2.50;;;;;;;1.07;100.00;99938.56;6089221;23;20021;-76
2021/12/02 08:35:36;;;;;;;5.25;3.28;;;;;;;1.15;100.00;99937.06;6094338;23;20034;-76
2021/12/02 08:38:10;;;;;;;4.28;2.67;;;;;;;1.26;100.00;99952.03;6040178;23;20025;-77
2021/12/02 08:40:40;;;;;;;2.85;1.60;;;;;;;1.34;100.00;99968.69;6064086;23;20461;-76
2021/12/02 08:43:13;;;;;;;2.97;1.30;;;;;;;1.41;100.00;99967.13;6091634;23;20018;-76
2021/12/02 08:45:43;;;;;;;3.97;1.40;;;;;;;1.43;100.00;99984.50;6056626;23;20030;-77
2021/12/02 08:48:12;;;;;;;2.47;1.00;;;;;;;1.45;100.00;99993.19;6087050;23;20030;-76
2021/12/02 08:50:40;;;;;;;3.05;1.05;;;;;;;1.50;100.00;99994.22;6066025;23;20229;-76
2021/12/02 08:53:10;;;;;;;5.57;1.73;;;;;;;1.55;100.00;99990.03;6065487;23;20022;-76
2021/12/02 08:55:38;;;;;;;2.75;1.00;;;;;;;1.59;100.00;99996.19;6037856;23;20141;-76
2021/12/02 08:58:09;;;;;;;1.85;1.10;;;;;;;1.62;100.00;99995.38;6048034;23;20026;-76
2021/12/02 09:00:40;;;;;;;1.38;1.00;;;;;;;1.67;100.00;99985.97;6084725;23;20638;-76
2021/12/02 09:03:13;;;;;;;2.47;1.30;;;;;;;1.72;100.00;99986.94;6087603;23;20026;-77
2021/12/02 09:05:43;;;;;;;2.13;1.10;;;;;;;1.78;100.00;99987.13;6095402;23;20033;-77
2021/12/02 09:08:12;;;;;;;1.60;1.17;;;;;;;1.86;100.00;99995.09;6087905;23;20015;-77
2021/12/02 09:10:41;;;;;;;1.48;1.00;;;;;;;1.94;100.00;99998.75;6008732;23;20026;-77
2021/12/02 09:13:10;;;;;;;1.70;0.98;;;;;;;2.03;100.00;100000.72;6018277;23;20026;-77
2021/12/02 09:15:39;;;;;;;3.83;1.30;;;;;;;2.13;100.00;100006.16;6084370;23;20244;-77
2021/12/02 09:18:08;;;;;;;87.15;5.78;;;;;;;2.24;100.00;100011.59;6086164;23;20029;-78
2021/12/02 09:20:37;;;;;;;2.97;1.45;;;;;;;2.29;100.00;100012.59;6094439;23;20213;-76
2021/12/02 09:23:05;;;;;;;3.47;1.10;;;;;;;2.30;100.00;100003.94;6070919;23;20022;-77
2021/12/02 09:25:34;;;;;;;8.02;1.52;;;;;;;2.33;100.00;100024.81;6056183;23;20233;-76
2021/12/02 09:28:03;;;;;;;2.28;1.10;;;;;;;2.34;100.00;100033.50;6036159;23;20030;-76
2021/12/02 09:30:32;;;;;;;3.90;1.73;;;;;;;2.37;100.00;100050.91;6048348;23;20021;-76
2021/12/02 09:33:01;;;;;;;5.35;1.70;;;;;;;2.38;100.00;100050.06;6083928;23;20240;-76
2021/12/02 09:35:29;;;;;;;5.25;1.52;;;;;;;2.38;100.00;100061.31;6093438;23;20018;-77
2021/12/02 09:37:58;;;;;;;4.07;1.30;;;;;;;2.37;100.00;100069.13;6092431;23;20217;-76
2021/12/02 09:40:26;;;;;;;3.80;0.70;;;;;;;2.28;100.00;100069.75;6065331;23;20075;-76
2021/12/02 09:42:55;;;;;;;3.97;1.02;;;;;;;2.21;100.00;100079.16;6040484;23;20228;-79
2021/12/02 09:45:23;;;;;;;2.65;0.60;;;;;;;2.08;100.00;100095.25;6063932;23;20026;-80
2021/12/02 09:47:52;;;;;;;1.13;0.70;;;;;;;1.99;100.00;100092.44;6055807;23;20018;-77
2021/12/02 09:50:37;;;;;;;4.35;0.88;;;;;;;1.96;100.00;100088.03;6039439;23;20029;-77
2021/12/02 09:53:09;;;;;;;4.55;0.80;;;;;;;1.94;100.00;100094.91;6071285;23;20022;-77
2021/12/02 09:55:54;;;;;;;4.90;0.80;;;;;;;1.94;100.00;100080.19;6086350;23;20021;-76
2021/12/02 09:58:25;;;;;;;1.23;0.90;;;;;;;1.94;100.00;100081.91;6038552;23;20030;-77
2021/12/02 10:01:04;;;;;;;3.08;0.70;;;;;;;1.95;100.00;100083.69;6048314;23;20026;-77
2021/12/02 10:03:37;;;;;;;2.15;0.60;;;;;;;1.98;100.00;100090.66;6063254;23;20018;-77
2021/12/02 10:06:16;;;;;;;3.50;0.70;;;;;;;2.01;100.00;100086.44;6061089;23;20049;-76
2021/12/02 10:08:58;;;;;;;0.60;0.60;;;;;;;2.05;100.00;100093.47;6088943;23;20209;-76
2021/12/02 10:11:33;;;;;;;5.78;1.10;;;;;;;2.12;100.00;100100.56;6090556;23;20026;-76
2021/12/02 10:14:26;;;;;;;1.75;0.52;;;;;;;2.22;100.00;100101.69;6040543;23;20049;-76
2021/12/02 10:17:18;;;;;;;1.42;0.63;;;;;;;2.29;100.00;100093.19;6061020;23;20213;-77
2021/12/02 10:19:59;;;;;;;1.00;0.70;;;;;;;2.38;100.00;100102.06;6058709;23;20620;-76
2021/12/02 10:22:27;;;;;;;1.85;0.60;;;;;;;2.46;100.00;100105.75;6085010;23;20022;-76
2021/12/02 10:24:55;;;;;;;3.63;0.70;;;;;;;2.55;100.00;100121.53;6091517;23;20030;-76
2021/12/02 10:27:24;;;;;;;2.38;0.70;;;;;;;2.66;100.00;100125.28;6091213;23;20029;-76
2021/12/02 10:29:52;;;;;;;3.05;0.90;;;;;;;2.79;100.00;100131.66;6065804;23;20151;-76
2021/12/02 10:32:25;;;;;;;2.25;0.60;;;;;;;2.99;100.00;100139.06;6089668;23;20026;-76
2021/12/02 10:35:00;;;;;;;3.13;0.73;;;;;;;3.08;100.00;100142.75;6038585;23;20018;-76
2021/12/02 10:37:35;;;;;;;1.77;0.80;;;;;;;3.13;100.00;100141.09;6059968;23;20022;-77
2021/12/02 10:40:09;;;;;;;3.28;0.70;;;;;;;3.09;100.00;100148.81;6056972;23;20026;-76
2021/12/02 10:42:42;;;;;;;2.80;0.60;;;;;;;3.03;100.00;100161.69;6064123;23;20487;-77
2021/12/02 10:45:29;;;;;;;3.53;0.60;;;;;;;2.98;100.00;100165.91;6044643;23;20010;-77
2021/12/02 10:47:58;;;;;;;1.85;0.52;;;;;;;2.83;100.00;100163.84;6055970;23;20734;-78
2021/12/02 10:50:35;;;;;;;0.63;0.50;;;;;;;2.69;100.00;100177.38;6089030;23;20033;-77
2021/12/02 10:53:04;;;;;;;1.40;0.70;;;;;;;2.54;100.00;100192.63;6063029;23;20035;-77
2021/12/02 10:55:33;;;;;;;0.60;0.60;;;;;;;2.34;100.00;100200.81;6067343;23;20018;-77
2021/12/02 10:58:02;;;;;;;3.72;0.98;;;;;;;2.21;100.00;100209.13;6024810;23;20045;-77
2021/12/02 11:00:36;;;;;;;0.50;0.50;;;;;;;2.08;100.00;100197.50;6038167;23;20029;-77
2021/12/02 11:03:09;;;;;;;2.72;0.95;;;;;;;1.95;100.00;100198.88;6055949;23;20026;-77
2021/12/02 11:05:46;;;;;;;0.80;0.80;;;;;;;1.80;100.00;100189.81;6021552;23;20034;-77
2021/12/02 11:08:16;;;;;;;3.10;0.90;;;;;;;1.68;100.00;100191.22;6053113;23;20019;-76
2021/12/02 11:10:47;;;;;;;3.80;0.88;;;;;;;1.59;100.00;100190.94;6058371;23;20057;-77
2021/12/02 11:13:22;;;;;;;1.73;0.98;;;;;;;1.54;100.00;100197.72;6062505;23;20026;-77
2021/12/02 11:15:53;;;;;;;5.95;0.85;;;;;;;1.47;100.00;100198.38;6032691;23;20267;-77
2021/12/02 11:18:23;;;;;;;1.20;1.10;;;;;;;1.45;100.00;100187.06;6060021;23;20019;-77
2021/12/02 11:20:58;;;;;;;4.30;1.40;;;;;;;1.46;100.00;100191.44;6051381;23;20145;-77
2021/12/02 11:23:36;;;;;;;0.70;0.70;;;;;;;1.45;100.00;100194.84;6059302;23;20022;-77
2021/12/02 11:26:10;;;;;;;3.40;1.20;;;;;;;1.46;100.00;100186.25;6086688;23;20018;-77
2021/12/02 11:28:41;;;;;;;5.22;3.20;;;;;;;1.44;100.00;100201.75;6049787;23;20025;-77
2021/12/02 11:31:15;;;;;;;1.50;1.40;;;;;;;1.47;100.00;100198.38;6089501;23;20030;-77
2021/12/02 11:33:45;;;;;;;3.97;1.23;;;;;;;1.52;100.00;100207.19;6031282;23;20030;-78
2021/12/02 11:36:21;;;;;;;1.40;0.93;;;;;;;1.55;100.00;100205.56;6078120;23;20345;-77
2021/12/02 11:38:58;;;;;;;1.48;1.20;;;;;;;1.59;100.00;100211.72;6054481;23;20026;-76
2021/12/02 11:41:28;;;;;;;0.82;0.82;;;;;;;1.62;100.00;100210.91;6054485;23;20222;-77
2021/12/02 11:43:56;;;;;;;2.42;1.13;;;;;;;1.63;100.00;100215.28;6060469;23;20453;-76
2021/12/02 11:46:24;;;;;;;5.25;2.10;;;;;;;1.62;100.00;100232.56;6057140;23;20373;-77
2021/12/02 11:48:53;;;;;;;1.30;1.20;;;;;;;1.64;100.00;100250.81;6044545;23;20029;-77
2021/12/02 11:51:22;;;;;;;3.35;1.40;;;;;;;1.61;100.00;100269.78;6072189;23;20245;-77
2021/12/02 11:53:50;;;;;;;1.73;1.55;;;;;;;1.55;100.00;100279.97;6060620;23;20487;-77
2021/12/02 11:56:21;;;;;;;1.30;1.10;;;;;;;1.45;100.00;100291.78;6084349;23;20377;-80
2021/12/02 11:58:50;;;;;;;;;;;;;;;1.36;100.00;100307.06;6060979;23;20353;-75
2021/12/02 12:01:22;;;;;;;1.65;1.27;;;;;;;1.27;100.00;100301.63;6049628;23;19917;-77
2021/12/02 12:03:56;;;;;;;1.00;0.65;;;;;;;1.14;100.00;100305.53;6040018;23;20026;-77
2021/12/02 12:06:30;;;;;;;0.50;0.50;;;;;;;1.08;100.00;100305.34;6055072;23;20024;-77
2021/12/02 12:09:00;;;;;;;1.52;0.60;;;;;;;1.04;100.00;100283.59;6033994;23;20038;-77
2021/12/02 12:11:31;;;;;;;2.23;0.60;;;;;;;1.03;100.00;100271.44;6029542;23;20154;-77
2021/12/02 12:14:01;;;;;;;2.35;0.65;;;;;;;1.06;100.00;100281.94;6034301;23;20023;-77
2021/12/02 12:16:34;;;;;;;0.52;0.52;;;;;;;1.07;100.00;100273.28;6032452;23;20019;-77
2021/12/02 12:19:22;;;;;;;1.42;0.52;;;;;;;1.09;100.00;100273.34;6026164;23;20023;-77
2021/12/02 12:22:13;;;;;;;0.63;0.63;;;;;;;1.10;100.00;100278.59;6009655;23;20022;-77
2021/12/02 12:24:47;;;;;;;0.93;0.60;;;;;;;1.10;100.00;100276.00;6033118;23;20034;-77
2021/12/02 12:27:36;;;;;;;0.60;0.60;;;;;;;1.08;100.00;100266.41;6036506;23;20022;-77
2021/12/02 12:30:19;;;;;;;0.93;0.68;;;;;;;1.07;100.00;100269.81;6031376;23;20027;-78
2021/12/02 12:33:14;;;;;;;1.35;0.80;;;;;;;1.05;100.00;100280.16;6034830;23;20019;-77
2021/12/02 12:36:13;;;;;;;3.45;1.13;;;;;;;1.04;100.00;100277.50;6015202;23;20023;-78
2021/12/02 12:38:42;;;;;;;1.25;1.15;;;;;;;1.03;100.00;100284.41;6024676;23;20031;-76
2021/12/02 12:41:13;;;;;;;0.95;0.95;;;;;;;1.01;100.00;100298.16;6004004;23;20030;-77
2021/12/02 12:43:52;;;;;;;1.77;1.00;;;;;;;0.99;100.00;100294.66;6031354;23;20024;-78
2021/12/02 12:46:26;;;;;;;0.90;0.90;;;;;;;1.02;100.00;100303.41;6038212;23;20030;-77
2021/12/02 12:48:56;;;;;;;1.00;1.00;;;;;;;1.09;100.00;100300.16;6020513;23;20390;-75
2021/12/02 12:51:29;;;;;;;1.40;1.30;;;;;;;1.17;100.00;100309.09;6001737;23;20051;-76